Laurel, MT

9:32 PM MDT on October 21, 2014 (GMT -0600)
NonFedAWOS LAURELMUNC MT US SUPERAWOS | Change Station
CLOSE
Current Station
Personal Weather Station
Location: Laurel, MT
Elevation: 3517 ft
Nearby Weather Stations

Elev 3517 ft 45.70 °N, 108.76 °W | Updated 37 minutes ago

Partly Cloudy
Partly Cloudy
52.0 °F
Feels Like 52.0 °F
N
25.0
Wind Variable Wind from WSW
Gusts 40.0 mph

Today
High -- | Low -- °F
--% Chance of Precip.
Yesterday
High -- | Low -- °F
Precip. -- in
7:39 AM 6:18 PM
Waning Crescent, 3% visible
Pressure 29.85 in
Visibility 10.0 miles
Clouds Few 18000 ft
Dew Point 30.0 °F
Humidity 43%
Rainfall -999.00 in
Snow Depth Not available.
UV 0 out of 12
Pollen 2.80 out of 12
Air Quality Not available.
Flu Activity No Activity
METAR KBIL 220253Z 29023G36KT 10SM FEW180 11/M01 A2987 RMK AO2 PK WND 28044/0231 PRESRR SLP106 FROPA T01111006 51044

More Conditions Fewer Conditions

Pressure 29.85 in
Visibility 10.0 miles
Clouds Few 18000 ft
Dew Point 30.0 °F
Humidity 43%
Rainfall -999.00 in
Snow Depth Not available.
UV 0 out of 12
Pollen 2.80 out of 12
Air Quality Not available.
Flu Activity No Activity
METAR KBIL 220253Z 29023G36KT 10SM FEW180 11/M01 A2987 RMK AO2 PK WND 28044/0231 PRESRR SLP106 FROPA T01111006 51044

More Conditions Fewer Conditions

10-Day Weather Forecast

Almanac

Astronomy

Oct. 21, 2014 Rise Set
Actual Time 7:39 AM MDT 6:18 PM MDT
Civil Twilight 7:09 AM MDT 6:49 PM MDT
Nautical Twilight 6:34 AM MDT 7:23 PM MDT
Astronomical Twilight 6:00 AM MDT 7:57 PM MDT
Moon 5:20 AM MDT (10/21) 5:19 PM MDT (10/21)
Length of Visible Light 11h 39m
Length of Day
10h 39m
Tomorrow will be 3m 3s shorter.
Waning Crescent, 3% of the Moon is Illuminated
Today
Waning Crescent
Oct 23
New
Oct 30
First Quarter
Nov 6
Full
Nov 14
Last Quarter

Today's Extremes

State Highs State Lows

Community

WunderPhotos

Upload Photos

1,763,874 photos uploaded!

Nearby

Snow Depth

Station Depth Elevation
Burnt Mountain 0 in 5880 ft
White Mill 0 in 8700 ft
Fisher Creek 1 in 9100 ft
Northeast Entrance 0 in 7350 ft
Box Canyon 0 in 6700 ft

Earthquake Activity

City Distance Mag. Time & Date
No recent earthquake activity has been reported nearby.
Minimum magnitude displayed is 2.5.

Coastal Water Temperatures

Place Temperature
No Stations Reporting

Nearby Weather Stations